createdAt,value
2022-10-18T00:01:19.944Z,64.93
2022-10-18T00:04:15.135Z,64.92
2022-10-18T00:07:15.454Z,65.00
2022-10-18T00:10:01.441Z,64.83
2022-10-18T00:15:25.729Z,64.76
2022-10-18T00:18:14.069Z,64.88
2022-10-18T00:21:10.306Z,64.82
2022-10-18T00:23:55.141Z,64.94
2022-10-18T00:26:37.409Z,65.14
2022-10-18T00:29:22.948Z,65.27
2022-10-18T00:33:47.844Z,65.45
2022-10-18T00:38:17.873Z,65.52
2022-10-18T00:44:08.951Z,65.71
2022-10-18T00:47:14.998Z,65.63
2022-10-18T00:50:37.353Z,65.78
2022-10-18T00:53:26.239Z,65.90
2022-10-18T00:56:14.134Z,66.06
2022-10-18T00:59:13.231Z,65.98
2022-10-18T01:01:58.660Z,66.04
2022-10-18T01:05:09.105Z,66.22
2022-10-18T01:08:16.377Z,66.44
2022-10-18T01:11:33.563Z,66.52
2022-10-18T01:14:45.489Z,66.47
2022-10-18T01:17:50.917Z,66.39
2022-10-18T01:20:47.660Z,66.36
2022-10-18T01:24:21.747Z,66.45
2022-10-18T01:27:14.392Z,66.62
2022-10-18T01:30:34.538Z,66.72
2022-10-18T01:33:43.411Z,66.61
2022-10-18T01:36:57.250Z,66.78
2022-10-18T01:42:49.780Z,66.99
2022-10-18T01:45:32.219Z,67.04
2022-10-18T01:48:19.254Z,66.93
2022-10-18T01:51:58.794Z,66.87
2022-10-18T01:54:44.273Z,66.84
2022-10-18T01:57:41.111Z,66.91
2022-10-18T02:00:52.196Z,67.13
2022-10-18T02:03:41.928Z,66.95
2022-10-18T02:06:39.386Z,67.02
2022-10-18T02:13:43.187Z,67.03
2022-10-18T02:16:32.073Z,67.10
2022-10-18T02:22:43.158Z,67.08
2022-10-18T02:25:39.750Z,66.98
2022-10-18T02:28:33.827Z,66.87
2022-10-18T02:31:48.708Z,67.07
2022-10-18T02:34:32.221Z,67.28
2022-10-18T02:38:01.144Z,67.31
2022-10-18T02:40:40.992Z,67.39
2022-10-18T02:43:42.259Z,67.45
2022-10-18T02:46:39.363Z,67.42
2022-10-18T02:49:14.559Z,67.36
2022-10-18T02:51:47.928Z,67.32
2022-10-18T02:54:28.922Z,67.37
2022-10-18T02:57:07.135Z,67.43
2022-10-18T02:59:56.630Z,67.27
2022-10-18T03:02:43.836Z,67.47
2022-10-18T03:05:17.242Z,67.55
2022-10-18T03:08:15.572Z,67.37
2022-10-18T03:10:51.375Z,67.48
2022-10-18T03:13:38.251Z,67.48
2022-10-18T03:16:39.369Z,67.89
2022-10-18T03:19:41.823Z,67.93
2022-10-18T03:22:35.684Z,68.04
2022-10-18T03:25:24.098Z,68.12
2022-10-18T03:28:55.193Z,68.11
2022-10-18T03:34:27.679Z,68.22
2022-10-18T03:37:12.203Z,68.16
2022-10-18T03:40:01.432Z,68.12
2022-10-18T03:43:05.646Z,68.16
2022-10-18T03:45:42.123Z,68.39
2022-10-18T03:48:43.673Z,68.66
2022-10-18T03:51:28.044Z,68.69
2022-10-18T03:54:12.811Z,68.63
2022-10-18T03:57:00.660Z,68.62
2022-10-18T04:00:07.877Z,68.75
2022-10-18T04:02:53.313Z,68.93
2022-10-18T04:05:37.160Z,69.01
2022-10-18T04:08:08.705Z,69.01
2022-10-18T04:10:53.977Z,68.90
2022-10-18T04:14:16.836Z,68.94
2022-10-18T04:17:00.473Z,69.13
2022-10-18T04:19:32.658Z,69.03
2022-10-18T04:22:14.924Z,69.05
2022-10-18T04:25:10.405Z,69.11
2022-10-18T04:28:09.907Z,69.26
2022-10-18T04:30:55.072Z,69.23
2022-10-18T04:33:24.361Z,69.30
2022-10-18T04:36:26.733Z,69.23
2022-10-18T04:39:40.268Z,69.45
2022-10-18T04:42:19.750Z,69.52
2022-10-18T04:44:53.596Z,69.62
2022-10-18T04:47:27.137Z,69.67
2022-10-18T04:50:15.124Z,69.68
2022-10-18T04:52:52.941Z,69.68
2022-10-18T04:55:40.490Z,69.85
2022-10-18T04:58:15.833Z,69.90
2022-10-18T05:00:53.917Z,69.98
2022-10-18T05:03:56.487Z,69.83
2022-10-18T05:06:45.010Z,69.94
2022-10-18T05:09:40.824Z,69.82
2022-10-18T05:12:15.700Z,69.91
2022-10-18T05:15:12.564Z,69.82
2022-10-18T05:17:51.781Z,69.76
2022-10-18T05:21:13.797Z,69.86
2022-10-18T05:24:04.101Z,69.96
2022-10-18T05:26:44.991Z,69.84
2022-10-18T05:29:50.998Z,69.71
2022-10-18T05:32:31.929Z,69.61
2022-10-18T05:35:09.743Z,69.53
2022-10-18T05:37:59.664Z,69.49
2022-10-18T05:40:53.495Z,69.54
2022-10-18T05:43:30.931Z,69.33
2022-10-18T05:46:23.920Z,69.09
2022-10-18T05:49:25.211Z,69.33
2022-10-18T05:52:04.038Z,69.41
2022-10-18T05:54:57.343Z,69.58
2022-10-18T05:58:09.019Z,69.63
2022-10-18T06:01:18.333Z,69.66
2022-10-18T06:04:06.738Z,69.76
2022-10-18T06:06:52.481Z,69.69
2022-10-18T06:09:28.877Z,69.47
2022-10-18T06:12:18.782Z,69.42
2022-10-18T06:15:02.570Z,69.30
2022-10-18T06:17:54.592Z,69.19
2022-10-18T06:21:05.262Z,69.25
2022-10-18T06:24:11.212Z,69.31
2022-10-18T06:29:42.799Z,69.15
2022-10-18T06:32:24.895Z,69.03
2022-10-18T06:35:11.636Z,68.74
2022-10-18T06:39:42.857Z,68.68
2022-10-18T06:41:17.477Z,68.67
2022-10-18T06:44:09.949Z,68.58
2022-10-18T06:46:49.931Z,68.42
2022-10-18T06:49:20.512Z,68.25
2022-10-18T06:51:59.887Z,68.28
2022-10-18T06:54:34.877Z,68.38
2022-10-18T06:57:06.534Z,68.08
2022-10-18T06:59:38.484Z,67.83
2022-10-18T07:02:07.590Z,67.61
2022-10-18T07:04:36.985Z,67.43
2022-10-18T07:07:07.186Z,67.25
2022-10-18T07:09:52.854Z,67.06
2022-10-18T07:12:45.374Z,67.24
2022-10-18T07:15:37.733Z,67.57
2022-10-18T07:18:26.482Z,67.50
2022-10-18T07:25:35.936Z,66.94
2022-10-18T07:28:36.435Z,66.97
2022-10-18T07:31:31.858Z,67.00
2022-10-18T07:34:30.490Z,66.39
2022-10-18T07:37:56.892Z,65.99
2022-10-18T07:40:31.650Z,65.25
2022-10-18T07:43:48.299Z,64.51
2022-10-18T07:47:08.552Z,63.87
2022-10-18T07:50:22.782Z,62.87
2022-10-18T07:54:02.852Z,61.63
2022-10-18T08:00:25.019Z,59.68
2022-10-18T08:03:09.712Z,59.01
2022-10-18T08:06:24.304Z,58.78
2022-10-18T08:09:25.068Z,58.04
2022-10-18T08:12:22.367Z,56.75
2022-10-18T08:15:15.180Z,57.33
2022-10-18T08:18:48.162Z,57.65
2022-10-18T08:21:32.698Z,57.71
2022-10-18T08:27:45.062Z,57.69
2022-10-18T08:30:42.550Z,57.24
2022-10-18T08:36:58.591Z,55.87
2022-10-18T08:40:20.207Z,55.97
2022-10-18T08:47:40.279Z,56.47
2022-10-18T08:54:13.036Z,56.26
2022-10-18T08:57:22.252Z,56.93
2022-10-18T09:04:00.797Z,57.16
2022-10-18T09:07:59.634Z,56.75
2022-10-18T09:11:41.046Z,56.59
2022-10-18T09:15:09.795Z,56.35
2022-10-18T09:21:32.290Z,55.99
2022-10-18T09:24:23.731Z,56.54
2022-10-18T09:27:17.604Z,56.71
2022-10-18T09:30:20.672Z,56.81
2022-10-18T09:33:21.029Z,57.22
2022-10-18T09:36:01.449Z,57.52
2022-10-18T09:38:50.940Z,57.20
2022-10-18T09:41:53.616Z,57.08
2022-10-18T09:44:33.963Z,56.84
2022-10-18T09:50:17.397Z,56.68
2022-10-18T09:53:26.717Z,56.60
2022-10-18T09:56:45.226Z,56.71
2022-10-18T09:59:52.993Z,56.57
2022-10-18T10:02:27.505Z,56.68
2022-10-18T10:05:26.139Z,56.56
2022-10-18T10:08:20.668Z,56.39
2022-10-18T10:11:36.913Z,56.34
2022-10-18T10:14:30.588Z,56.51
2022-10-18T10:17:08.665Z,56.13
2022-10-18T10:20:04.931Z,56.03
2022-10-18T10:22:48.876Z,55.96
2022-10-18T10:25:41.329Z,55.24
2022-10-18T10:28:18.970Z,54.98
2022-10-18T10:31:41.542Z,55.23
2022-10-18T10:34:25.391Z,55.51
2022-10-18T10:37:43.196Z,55.31
2022-10-18T10:40:41.013Z,55.23
2022-10-18T10:43:33.134Z,54.80
2022-10-18T10:46:28.718Z,54.96
2022-10-18T10:49:34.938Z,55.21
2022-10-18T10:52:25.893Z,55.30
2022-10-18T10:55:23.629Z,54.83
2022-10-18T10:58:04.349Z,55.08
2022-10-18T11:00:45.694Z,55.06
2022-10-18T11:03:29.596Z,55.08
2022-10-18T11:06:02.439Z,55.01
2022-10-18T11:08:43.477Z,54.85
2022-10-18T11:11:33.541Z,54.77
2022-10-18T11:14:27.433Z,54.75
2022-10-18T11:17:33.342Z,54.67
2022-10-18T11:20:07.478Z,54.99
2022-10-18T11:23:05.478Z,55.19
2022-10-18T11:26:13.108Z,55.46
2022-10-18T11:29:07.655Z,55.90
2022-10-18T11:32:24.906Z,56.05
2022-10-18T11:35:39.551Z,56.24
2022-10-18T11:38:49.709Z,56.69
2022-10-18T11:41:30.378Z,57.01
2022-10-18T11:44:32.832Z,56.62
2022-10-18T11:47:52.225Z,56.33
2022-10-18T11:50:52.812Z,56.11
2022-10-18T11:54:01.720Z,55.88
2022-10-18T11:57:02.785Z,56.31
2022-10-18T12:00:42.138Z,56.21
2022-10-18T12:03:42.763Z,56.41
2022-10-18T12:06:32.522Z,56.55
2022-10-18T12:11:04.987Z,56.32
2022-10-18T12:13:47.327Z,56.24
2022-10-18T12:17:19.050Z,55.96
2022-10-18T12:19:56.023Z,56.10
2022-10-18T12:22:55.464Z,55.78
2022-10-18T12:25:46.509Z,55.99
2022-10-18T12:28:53.556Z,55.96
2022-10-18T12:32:25.746Z,56.20
2022-10-18T12:35:23.092Z,56.69
2022-10-18T12:38:23.235Z,56.87
2022-10-18T12:41:06.283Z,56.81
2022-10-18T12:44:08.964Z,57.11
2022-10-18T12:47:01.713Z,56.81
2022-10-18T12:49:49.052Z,56.60
2022-10-18T12:52:36.081Z,56.42
2022-10-18T12:55:55.500Z,56.81
2022-10-18T12:58:59.017Z,57.02
2022-10-18T13:02:25.133Z,57.14
2022-10-18T13:05:54.873Z,57.22
2022-10-18T13:08:56.426Z,57.41
2022-10-18T13:12:18.719Z,57.59
2022-10-18T13:15:41.478Z,57.74
2022-10-18T13:18:59.360Z,57.89
2022-10-18T13:22:04.269Z,58.09
2022-10-18T13:25:12.195Z,58.37
2022-10-18T13:28:10.027Z,58.84
2022-10-18T13:31:39.954Z,59.40
2022-10-18T13:34:41.333Z,59.83
2022-10-18T13:37:29.868Z,60.39
2022-10-18T13:47:56.126Z,61.53
2022-10-18T13:50:43.336Z,61.65
2022-10-18T13:53:51.983Z,61.80
2022-10-18T13:57:05.470Z,62.17
2022-10-18T14:00:21.596Z,62.87
2022-10-18T14:12:27.637Z,64.92
2022-10-18T14:15:24.139Z,65.39
2022-10-18T14:18:16.022Z,65.81
2022-10-18T14:21:58.148Z,66.40
2022-10-18T14:24:08.408Z,66.77
2022-10-18T14:29:34.237Z,67.56
2022-10-18T14:32:30.402Z,68.52
2022-10-18T14:35:32.972Z,69.22
2022-10-18T14:38:14.587Z,69.82
2022-10-18T14:41:27.641Z,70.03
2022-10-18T14:44:53.027Z,70.52
2022-10-18T14:47:30.516Z,70.62
2022-10-18T14:50:04.345Z,70.98
2022-10-18T14:52:35.850Z,70.95
2022-10-18T14:55:13.362Z,71.17
2022-10-18T14:57:46.371Z,71.30
2022-10-18T15:00:35.241Z,71.49
2022-10-18T15:03:09.616Z,71.56
2022-10-18T15:06:00.051Z,71.78
2022-10-18T15:08:44.494Z,71.99
2022-10-18T15:11:16.451Z,72.05
2022-10-18T15:13:58.674Z,72.19
2022-10-18T15:16:37.290Z,72.39
2022-10-18T15:19:36.428Z,72.68
2022-10-18T15:25:05.786Z,72.64
2022-10-18T15:30:34.206Z,72.89
2022-10-18T15:33:10.030Z,73.21
2022-10-18T15:35:43.327Z,73.53
2022-10-18T15:38:28.085Z,73.52
2022-10-18T15:41:04.335Z,73.57
2022-10-18T15:43:39.039Z,73.76
2022-10-18T15:46:32.441Z,73.71
2022-10-18T15:49:25.218Z,73.85
2022-10-18T15:52:10.994Z,73.94
2022-10-18T15:54:43.301Z,73.81
2022-10-18T15:57:13.045Z,73.81
2022-10-18T15:59:58.212Z,73.84
2022-10-18T16:02:31.319Z,73.88
2022-10-18T16:05:02.094Z,74.01
2022-10-18T16:07:31.395Z,74.02
2022-10-18T16:10:00.865Z,73.99
2022-10-18T16:12:31.682Z,74.05
2022-10-18T16:15:00.670Z,74.07
2022-10-18T16:17:30.105Z,74.24
2022-10-18T16:19:59.291Z,74.17
2022-10-18T16:22:29.540Z,74.16
2022-10-18T16:25:02.701Z,74.02
2022-10-18T16:27:31.981Z,74.15
2022-10-18T16:30:20.330Z,74.19
2022-10-18T16:33:00.283Z,74.23
2022-10-18T16:35:31.896Z,74.21
2022-10-18T16:38:00.753Z,74.21
2022-10-18T16:40:29.678Z,74.29
2022-10-18T16:42:58.555Z,74.35
2022-10-18T16:45:27.512Z,74.42
2022-10-18T16:47:56.440Z,74.45
2022-10-18T16:50:27.025Z,74.41
2022-10-18T16:52:55.948Z,74.40
2022-10-18T16:55:25.174Z,74.37
2022-10-18T16:57:56.831Z,74.56
2022-10-18T17:00:31.479Z,74.52
2022-10-18T17:03:07.262Z,74.49
2022-10-18T17:05:38.198Z,74.67
2022-10-18T17:08:19.790Z,74.80
2022-10-18T17:10:53.387Z,74.75
2022-10-18T17:13:26.038Z,74.87
2022-10-18T17:16:00.383Z,74.94
2022-10-18T17:18:42.894Z,74.99
2022-10-18T17:21:19.312Z,74.95
2022-10-18T17:23:54.136Z,75.01
2022-10-18T17:26:28.941Z,75.12
2022-10-18T17:29:08.437Z,75.09
2022-10-18T17:31:48.176Z,75.12
2022-10-18T17:34:21.465Z,75.20
2022-10-18T17:36:53.023Z,75.17
2022-10-18T17:39:42.034Z,75.15
2022-10-18T17:42:15.545Z,75.27
2022-10-18T17:44:47.053Z,75.29
2022-10-18T17:47:21.800Z,75.30
2022-10-18T17:49:53.687Z,75.37
2022-10-18T17:52:27.326Z,75.43
2022-10-18T17:54:57.928Z,75.35
2022-10-18T17:57:33.679Z,75.42
2022-10-18T18:00:10.756Z,75.50
2022-10-18T18:02:47.495Z,75.46
2022-10-18T18:05:23.166Z,75.56
2022-10-18T18:07:52.837Z,75.62
2022-10-18T18:10:33.060Z,75.43
2022-10-18T18:13:09.978Z,75.46
2022-10-18T18:15:41.735Z,75.44
2022-10-18T18:18:13.178Z,75.34
2022-10-18T18:20:55.361Z,75.41
2022-10-18T18:23:30.289Z,75.39
2022-10-18T18:26:01.652Z,75.47
2022-10-18T18:28:36.104Z,75.54
2022-10-18T18:31:16.028Z,75.58
2022-10-18T18:33:45.412Z,75.72
2022-10-18T18:36:16.680Z,75.72
2022-10-18T18:39:01.435Z,75.79
2022-10-18T18:41:34.710Z,75.95
2022-10-18T18:44:06.739Z,75.88
2022-10-18T18:46:39.374Z,75.82
2022-10-18T18:49:14.010Z,75.90
2022-10-18T18:51:47.195Z,75.98
2022-10-18T18:54:19.060Z,75.95
2022-10-18T18:56:48.308Z,75.98
2022-10-18T18:59:32.438Z,75.98
2022-10-18T19:02:12.281Z,76.07
2022-10-18T19:04:45.597Z,75.92
2022-10-18T19:07:22.702Z,76.06
2022-10-18T19:09:54.449Z,76.04
2022-10-18T19:13:28.439Z,76.01
2022-10-18T19:16:24.159Z,76.19
2022-10-18T19:19:16.739Z,76.31
2022-10-18T19:21:58.380Z,76.24
2022-10-18T19:24:32.766Z,76.31
2022-10-18T19:27:14.090Z,76.42
2022-10-18T19:29:46.296Z,76.32
2022-10-18T19:32:20.467Z,76.23
2022-10-18T19:34:52.205Z,76.19
2022-10-18T19:37:21.532Z,76.21
2022-10-18T19:39:51.961Z,76.22
2022-10-18T19:42:24.245Z,76.32
2022-10-18T19:45:09.365Z,76.21
2022-10-18T19:47:58.548Z,76.23
2022-10-18T19:50:51.103Z,76.13
2022-10-18T19:53:28.241Z,76.18
2022-10-18T19:56:16.956Z,76.24
2022-10-18T19:58:52.743Z,76.06
2022-10-18T20:01:28.180Z,76.08
2022-10-18T20:04:12.542Z,76.03
2022-10-18T20:06:57.111Z,76.20
2022-10-18T20:13:36.750Z,76.26
2022-10-18T20:16:31.033Z,76.32
2022-10-18T20:23:34.948Z,76.52
2022-10-18T20:26:39.480Z,76.38
2022-10-18T20:32:50.884Z,76.51
2022-10-18T20:35:50.087Z,76.37
2022-10-18T20:38:53.600Z,76.37
2022-10-18T20:42:00.332Z,76.29
2022-10-18T20:44:49.397Z,76.39
2022-10-18T20:48:44.217Z,76.36
2022-10-18T20:53:04.957Z,76.42
2022-10-18T20:57:16.829Z,76.43
2022-10-18T21:00:37.600Z,76.40
2022-10-18T21:30:26.506Z,71.04
2022-10-18T21:34:25.722Z,69.29
2022-10-18T22:37:17.803Z,74.51
2022-10-18T22:39:56.558Z,74.54
2022-10-18T22:42:37.325Z,74.66
2022-10-18T22:45:24.562Z,74.78
2022-10-18T22:48:24.051Z,74.75
2022-10-18T22:51:03.972Z,74.73
2022-10-18T22:53:40.593Z,74.90
2022-10-18T22:56:28.673Z,74.99
2022-10-18T22:59:02.463Z,74.98
2022-10-18T23:01:52.353Z,74.92
2022-10-18T23:04:39.250Z,75.10
2022-10-18T23:07:30.967Z,75.06
2022-10-18T23:10:16.446Z,75.20
2022-10-18T23:13:03.280Z,75.25
2022-10-18T23:22:11.401Z,75.40
2022-10-18T23:25:25.399Z,75.44
2022-10-18T23:28:08.997Z,75.40
2022-10-18T23:30:47.993Z,75.39
2022-10-18T23:33:34.053Z,75.25
2022-10-18T23:36:05.156Z,75.24
2022-10-18T23:38:42.477Z,75.25
2022-10-18T23:41:18.976Z,75.19
2022-10-18T23:43:57.594Z,75.16
2022-10-18T23:46:42.189Z,75.12
2022-10-18T23:49:14.626Z,75.02
2022-10-18T23:51:48.252Z,74.93
2022-10-18T23:54:19.893Z,74.85
2022-10-18T23:56:53.743Z,74.81
2022-10-18T23:59:35.926Z,74.76
